createdAt,value
2019-03-27T00:00:55.940Z,5.90
2019-03-27T00:03:29.097Z,6.40
2019-03-27T00:06:02.855Z,5.07
2019-03-27T00:08:36.417Z,6.90
2019-03-27T00:18:38.794Z,5.33
2019-03-27T00:21:10.981Z,4.63
2019-03-27T00:23:46.811Z,5.53
2019-03-27T00:26:19.163Z,5.70
2019-03-27T00:28:52.691Z,5.80
2019-03-27T00:31:27.126Z,6.70
2019-03-27T00:33:59.947Z,4.97
2019-03-27T00:36:33.203Z,5.90
2019-03-27T00:39:07.318Z,4.70
2019-03-27T00:41:40.150Z,5.30
2019-03-27T00:44:12.020Z,6.83
2019-03-27T00:46:45.730Z,6.13
2019-03-27T00:49:19.509Z,4.83
2019-03-27T00:51:55.020Z,6.33
2019-03-27T00:54:28.733Z,5.30
2019-03-27T00:57:03.352Z,4.67
2019-03-27T00:59:36.177Z,4.80
2019-03-27T01:02:10.788Z,5.40
2019-03-27T01:04:45.057Z,5.33
2019-03-27T01:07:18.428Z,5.80
2019-03-27T01:09:54.801Z,7.17
2019-03-27T01:12:27.169Z,6.87
2019-03-27T01:15:01.128Z,5.10
2019-03-27T01:17:33.496Z,7.10
2019-03-27T01:20:06.652Z,5.43
2019-03-27T01:22:41.698Z,4.73
2019-03-27T01:25:18.208Z,5.20
2019-03-27T01:27:51.384Z,5.10
2019-03-27T01:30:23.690Z,5.47
2019-03-27T01:32:55.658Z,5.10
2019-03-27T01:35:28.525Z,5.50
2019-03-27T01:38:00.488Z,5.57
2019-03-27T01:40:33.175Z,5.40
2019-03-27T01:43:07.252Z,5.30
2019-03-27T01:45:52.435Z,5.73
2019-03-27T01:48:17.375Z,6.40
2019-03-27T01:50:50.825Z,6.17
2019-03-27T01:53:25.067Z,8.47
2019-03-27T01:55:58.672Z,4.73
2019-03-27T01:58:31.613Z,5.60
2019-03-27T02:01:05.032Z,5.70
2019-03-27T02:03:39.531Z,6.37
2019-03-27T02:06:13.049Z,6.50
2019-03-27T02:08:47.514Z,5.40
2019-03-27T02:11:19.903Z,5.97
2019-03-27T02:13:53.488Z,4.97
2019-03-27T02:16:27.716Z,6.23
2019-03-27T02:19:00.706Z,6.77
2019-03-27T02:21:34.769Z,6.00
2019-03-27T02:24:08.892Z,6.97
2019-03-27T02:26:44.325Z,6.00
2019-03-27T02:29:17.550Z,6.60
2019-03-27T02:31:52.683Z,6.00
2019-03-27T02:34:24.739Z,5.33
2019-03-27T02:36:58.864Z,5.93
2019-03-27T02:39:30.714Z,7.63
2019-03-27T02:42:04.479Z,6.70
2019-03-27T02:44:36.537Z,6.90
2019-03-27T02:47:08.862Z,5.80
2019-03-27T02:49:42.914Z,6.60
2019-03-27T02:52:15.675Z,6.53
2019-03-27T02:54:49.010Z,5.53
2019-03-27T02:57:20.883Z,6.40
2019-03-27T02:59:54.724Z,5.30
2019-03-27T03:02:27.974Z,7.30
2019-03-27T03:05:00.795Z,6.13
2019-03-27T03:07:32.702Z,5.77
2019-03-27T03:10:05.294Z,5.57
2019-03-27T03:12:38.826Z,6.83
2019-03-27T03:15:15.288Z,7.23
2019-03-27T03:17:49.247Z,6.50
2019-03-27T03:20:21.656Z,7.50
2019-03-27T03:22:54.527Z,6.20
2019-03-27T03:25:26.881Z,6.83
2019-03-27T03:27:59.106Z,5.30
2019-03-27T03:30:32.161Z,4.93
2019-03-27T03:33:06.711Z,5.33
2019-03-27T03:35:38.968Z,5.37
2019-03-27T03:38:12.997Z,5.00
2019-03-27T03:40:47.053Z,4.70
2019-03-27T03:43:19.983Z,4.43
2019-03-27T03:45:53.973Z,4.50
2019-03-27T03:48:26.971Z,6.00
2019-03-27T03:51:01.852Z,4.20
2019-03-27T03:53:34.605Z,4.90
2019-03-27T03:56:10.301Z,4.90
2019-03-27T03:58:44.367Z,4.17
2019-03-27T04:01:17.328Z,5.23
2019-03-27T04:03:52.622Z,3.83
2019-03-27T04:06:24.979Z,2.87
2019-03-27T04:08:58.615Z,3.10
2019-03-27T04:11:30.405Z,3.30
2019-03-27T04:14:05.066Z,2.73
2019-03-27T04:16:40.886Z,3.50
2019-03-27T04:19:15.128Z,2.90
2019-03-27T04:21:48.168Z,3.90
2019-03-27T04:24:20.094Z,3.13
2019-03-27T04:26:52.224Z,2.80
2019-03-27T04:29:25.818Z,3.10
2019-03-27T04:31:59.560Z,3.10
2019-03-27T04:34:33.321Z,3.03
2019-03-27T04:37:08.911Z,3.70
2019-03-27T04:39:43.821Z,3.37
2019-03-27T04:42:20.129Z,3.10
2019-03-27T04:44:55.981Z,3.00
2019-03-27T04:47:32.311Z,4.03
2019-03-27T04:50:05.571Z,3.50
2019-03-27T04:52:45.318Z,3.53
2019-03-27T04:55:17.416Z,2.83
2019-03-27T04:57:51.418Z,3.17
2019-03-27T05:00:26.300Z,3.13
2019-03-27T05:03:01.923Z,3.57
2019-03-27T05:05:33.687Z,3.47
2019-03-27T05:08:06.243Z,3.17
2019-03-27T05:10:39.313Z,3.57
2019-03-27T05:13:12.312Z,4.57
2019-03-27T05:15:45.468Z,4.20
2019-03-27T05:18:19.013Z,4.70
2019-03-27T05:20:52.436Z,4.43
2019-03-27T05:23:24.759Z,3.70
2019-03-27T05:25:57.238Z,3.90
2019-03-27T05:28:30.518Z,4.43
2019-03-27T05:31:03.394Z,3.00
2019-03-27T05:33:36.447Z,4.00
2019-03-27T05:36:10.489Z,4.10
2019-03-27T05:38:44.850Z,4.00
2019-03-27T05:41:18.679Z,4.23
2019-03-27T05:43:51.489Z,3.90
2019-03-27T05:46:26.546Z,4.50
2019-03-27T05:49:02.123Z,4.53
2019-03-27T05:51:36.623Z,5.33
2019-03-27T05:54:11.499Z,5.83
2019-03-27T05:56:45.966Z,6.40
2019-03-27T05:59:19.169Z,6.20
2019-03-27T06:01:53.069Z,5.70
2019-03-27T06:04:29.153Z,5.30
2019-03-27T06:07:03.452Z,4.97
2019-03-27T06:09:39.354Z,4.67
2019-03-27T06:12:14.839Z,5.20
2019-03-27T06:14:48.714Z,5.13
2019-03-27T06:17:20.898Z,4.37
2019-03-27T06:19:56.569Z,4.73
2019-03-27T06:22:31.023Z,5.27
2019-03-27T06:25:05.001Z,5.07
2019-03-27T06:27:42.202Z,4.50
2019-03-27T06:30:15.612Z,5.00
2019-03-27T06:32:47.800Z,4.60
2019-03-27T06:35:20.632Z,5.30
2019-03-27T06:37:54.785Z,4.37
2019-03-27T06:40:27.776Z,5.70
2019-03-27T06:43:00.750Z,5.63
2019-03-27T06:45:33.767Z,5.53
2019-03-27T06:48:06.744Z,5.77
2019-03-27T06:50:39.743Z,5.40
2019-03-27T06:53:11.956Z,4.70
2019-03-27T06:55:45.837Z,4.70
2019-03-27T06:58:18.794Z,4.90
2019-03-27T07:00:51.824Z,4.83
2019-03-27T07:03:24.980Z,4.70
2019-03-27T07:05:57.920Z,4.83
2019-03-27T07:08:30.903Z,5.27
2019-03-27T07:11:05.101Z,5.07
2019-03-27T07:13:37.173Z,4.97
2019-03-27T07:16:09.817Z,5.90
2019-03-27T07:18:43.058Z,5.23
2019-03-27T07:21:14.834Z,6.17
2019-03-27T07:23:49.058Z,5.80
2019-03-27T07:26:21.500Z,7.00
2019-03-27T07:28:53.986Z,7.23
2019-03-27T07:31:29.648Z,6.90
2019-03-27T07:34:03.976Z,6.60
2019-03-27T07:36:37.800Z,6.67
2019-03-27T07:39:11.199Z,6.10
2019-03-27T07:41:43.320Z,5.33
2019-03-27T07:44:15.048Z,4.97
2019-03-27T07:46:49.457Z,5.47
2019-03-27T07:49:21.259Z,5.70
2019-03-27T07:51:54.142Z,5.80
2019-03-27T07:54:28.175Z,6.80
2019-03-27T07:57:02.214Z,4.97
2019-03-27T07:59:36.736Z,4.73
2019-03-27T08:02:09.082Z,5.10
2019-03-27T08:04:44.732Z,4.70
2019-03-27T08:07:26.730Z,4.80
2019-03-27T08:09:53.040Z,4.53
2019-03-27T08:12:26.925Z,4.87
2019-03-27T08:15:02.011Z,4.27
2019-03-27T08:17:34.090Z,4.77
2019-03-27T08:20:09.026Z,4.33
2019-03-27T08:22:43.527Z,3.90
2019-03-27T08:25:16.144Z,4.60
2019-03-27T08:27:49.103Z,3.87
2019-03-27T08:30:22.224Z,4.83
2019-03-27T08:32:58.274Z,4.70
2019-03-27T08:35:32.158Z,5.57
2019-03-27T08:38:06.232Z,5.00
2019-03-27T08:40:40.275Z,4.57
2019-03-27T08:43:21.244Z,4.90
2019-03-27T08:45:49.456Z,4.37
2019-03-27T08:48:21.399Z,4.77
2019-03-27T08:50:53.214Z,5.23
2019-03-27T08:53:27.580Z,6.10
2019-03-27T08:56:02.032Z,5.63
2019-03-27T08:58:34.482Z,5.03
2019-03-27T09:01:07.449Z,4.80
2019-03-27T09:03:40.527Z,3.93
2019-03-27T09:06:33.132Z,3.10
2019-03-27T09:08:58.514Z,3.63
2019-03-27T09:11:30.479Z,7.10
2019-03-27T09:14:03.197Z,4.80
2019-03-27T09:16:38.755Z,5.87
2019-03-27T09:19:12.507Z,8.40
2019-03-27T09:21:44.668Z,6.40
2019-03-27T09:24:20.776Z,6.90
2019-03-27T09:26:54.549Z,9.30
2019-03-27T09:29:26.706Z,6.47
2019-03-27T09:32:00.463Z,5.73
2019-03-27T09:34:33.410Z,4.17
2019-03-27T09:37:05.424Z,4.07
2019-03-27T09:39:39.607Z,3.80
2019-03-27T09:42:14.244Z,5.20
2019-03-27T09:44:50.270Z,3.83
2019-03-27T09:47:22.080Z,4.40
2019-03-27T09:49:54.617Z,3.50
2019-03-27T09:52:27.693Z,4.50
2019-03-27T09:55:01.829Z,4.77
2019-03-27T09:57:33.570Z,5.93
2019-03-27T10:00:08.128Z,7.00
2019-03-27T10:02:43.036Z,6.17
2019-03-27T10:05:15.685Z,5.30
2019-03-27T10:07:49.524Z,4.07
2019-03-27T10:10:22.038Z,4.03
2019-03-27T10:12:56.624Z,6.30
2019-03-27T10:15:30.661Z,3.57
2019-03-27T10:18:04.627Z,4.33
2019-03-27T10:20:36.787Z,4.40
2019-03-27T10:23:09.374Z,4.47
2019-03-27T10:25:42.983Z,4.67
2019-03-27T10:28:15.553Z,4.77
2019-03-27T10:30:48.763Z,11.30
2019-03-27T10:33:22.189Z,6.70
2019-03-27T10:35:55.644Z,6.03
2019-03-27T10:38:27.883Z,3.67
2019-03-27T10:41:00.799Z,5.90
2019-03-27T10:43:36.035Z,3.83
2019-03-27T10:46:10.736Z,4.90
2019-03-27T10:48:52.301Z,4.83
2019-03-27T10:51:18.825Z,4.20
2019-03-27T10:53:53.399Z,4.70
2019-03-27T10:56:29.457Z,5.27
2019-03-27T10:59:04.043Z,4.53
2019-03-27T11:01:38.713Z,4.43
2019-03-27T11:04:12.840Z,6.20
2019-03-27T11:06:45.898Z,6.87
2019-03-27T11:09:18.835Z,6.93
2019-03-27T11:11:51.840Z,5.20
2019-03-27T11:14:37.154Z,4.17
2019-03-27T11:17:01.329Z,4.43
2019-03-27T11:19:36.688Z,4.37
2019-03-27T11:22:12.691Z,5.27
2019-03-27T11:24:47.003Z,5.80
2019-03-27T11:27:20.075Z,5.47
2019-03-27T11:29:52.372Z,4.83
2019-03-27T11:32:24.843Z,5.80
2019-03-27T11:34:59.952Z,5.97
2019-03-27T11:37:34.073Z,8.20
2019-03-27T11:40:07.031Z,6.30
2019-03-27T11:42:42.480Z,5.60
2019-03-27T11:45:15.141Z,6.30
2019-03-27T11:47:48.080Z,4.83
2019-03-27T11:50:21.038Z,5.60
2019-03-27T11:52:53.689Z,7.07
2019-03-27T11:55:26.208Z,6.20
2019-03-27T11:57:59.292Z,7.90
2019-03-27T12:00:31.063Z,6.30
2019-03-27T12:03:04.140Z,7.10
2019-03-27T12:05:37.204Z,6.40
2019-03-27T12:08:09.029Z,7.20
2019-03-27T12:10:43.081Z,7.37
2019-03-27T12:13:16.705Z,8.00
2019-03-27T12:15:50.604Z,7.60
2019-03-27T12:18:22.406Z,9.37
2019-03-27T12:20:59.389Z,9.60
2019-03-27T12:23:32.817Z,11.40
2019-03-27T12:26:06.141Z,8.83
2019-03-27T12:28:38.416Z,8.70
2019-03-27T12:31:11.439Z,8.10
2019-03-27T12:33:45.346Z,8.93
2019-03-27T12:36:19.382Z,11.20
2019-03-27T12:38:52.377Z,7.73
2019-03-27T12:41:25.706Z,7.97
2019-03-27T12:44:02.588Z,8.17
2019-03-27T12:46:35.698Z,8.07
2019-03-27T12:49:10.042Z,9.17
2019-03-27T12:51:43.342Z,8.30
2019-03-27T12:54:17.956Z,9.50
2019-03-27T12:56:50.406Z,9.63
2019-03-27T12:59:22.308Z,8.77
2019-03-27T13:01:55.086Z,8.00
2019-03-27T13:04:29.432Z,7.70
2019-03-27T13:07:03.566Z,7.60
2019-03-27T13:09:36.435Z,6.50
2019-03-27T13:12:11.481Z,6.33
2019-03-27T13:14:43.435Z,6.10
2019-03-27T13:17:17.519Z,5.60
2019-03-27T13:19:51.482Z,5.20
2019-03-27T13:22:27.204Z,6.67
2019-03-27T13:25:00.476Z,5.43
2019-03-27T13:27:33.777Z,7.03
2019-03-27T13:30:08.165Z,6.10
2019-03-27T13:32:44.095Z,6.23
2019-03-27T13:35:17.806Z,5.60
2019-03-27T13:37:52.708Z,6.20
2019-03-27T13:40:27.523Z,6.43
2019-03-27T13:43:00.664Z,7.50
2019-03-27T13:45:35.378Z,5.43
2019-03-27T13:48:08.592Z,5.97
2019-03-27T13:50:40.770Z,6.00
2019-03-27T13:53:14.576Z,5.70
2019-03-27T13:55:47.780Z,6.10
2019-03-27T13:58:21.164Z,6.70
2019-03-27T14:00:55.424Z,6.50
2019-03-27T14:03:29.062Z,7.53
2019-03-27T14:06:02.596Z,8.93
2019-03-27T14:08:34.639Z,7.33
2019-03-27T14:11:08.545Z,7.07
2019-03-27T14:13:43.247Z,6.13
2019-03-27T14:16:16.733Z,6.57
2019-03-27T14:18:49.079Z,9.60
2019-03-27T14:21:54.391Z,7.63
2019-03-27T14:24:20.855Z,5.33
2019-03-27T14:26:53.254Z,7.23
2019-03-27T14:29:25.222Z,12.23
2019-03-27T14:31:58.802Z,9.03
2019-03-27T14:34:30.623Z,5.80
2019-03-27T14:37:05.555Z,4.97
2019-03-27T14:39:37.980Z,6.90
2019-03-27T14:42:10.794Z,6.47
2019-03-27T14:44:45.502Z,6.50
2019-03-27T14:47:21.198Z,6.97
2019-03-27T14:49:52.996Z,5.97
2019-03-27T14:52:25.035Z,6.80
2019-03-27T14:54:57.308Z,5.17
2019-03-27T14:57:29.077Z,6.70
2019-03-27T15:00:01.715Z,5.73
2019-03-27T15:02:37.831Z,5.73
2019-03-27T15:05:12.058Z,5.43
2019-03-27T15:07:46.268Z,5.47
2019-03-27T15:10:19.699Z,5.23
2019-03-27T15:12:52.862Z,5.23
2019-03-27T15:15:26.720Z,5.33
2019-03-27T15:18:02.543Z,5.90
2019-03-27T15:20:36.924Z,4.63
2019-03-27T15:23:09.243Z,5.10
2019-03-27T15:25:43.443Z,6.80
2019-03-27T15:28:16.105Z,6.03
2019-03-27T15:30:48.101Z,6.33
2019-03-27T15:33:21.105Z,5.30
2019-03-27T15:35:55.674Z,5.50
2019-03-27T15:38:28.129Z,5.43
2019-03-27T15:41:02.002Z,6.20
2019-03-27T15:43:33.890Z,6.87
2019-03-27T15:46:06.189Z,9.30
2019-03-27T15:48:40.195Z,7.67
2019-03-27T15:51:13.148Z,7.10
2019-03-27T15:53:47.545Z,6.77
2019-03-27T15:56:20.053Z,6.77
2019-03-27T15:58:52.264Z,6.50
2019-03-27T16:01:25.191Z,8.23
2019-03-27T16:03:58.074Z,8.20
2019-03-27T16:06:30.109Z,7.57
2019-03-27T16:09:03.335Z,7.67
2019-03-27T16:11:37.217Z,10.13
2019-03-27T16:14:11.338Z,7.47
2019-03-27T16:16:56.249Z,7.60
2019-03-27T16:19:19.227Z,8.43
2019-03-27T16:21:53.246Z,9.30
2019-03-27T16:24:25.128Z,9.23
2019-03-27T16:27:04.415Z,8.60
2019-03-27T16:29:34.357Z,7.93
2019-03-27T16:32:08.485Z,8.77
2019-03-27T16:34:40.947Z,16.40
2019-03-27T16:37:13.352Z,24.00
2019-03-27T16:39:46.322Z,29.83
2019-03-27T16:42:19.383Z,19.93
2019-03-27T16:44:52.044Z,14.57
2019-03-27T16:47:25.333Z,15.00
2019-03-27T16:49:58.368Z,13.20
2019-03-27T16:52:31.444Z,12.30
2019-03-27T16:55:04.358Z,11.90
2019-03-27T16:57:37.437Z,12.73
2019-03-27T17:00:12.151Z,13.27
2019-03-27T17:02:47.030Z,13.80
2019-03-27T17:05:20.547Z,16.00
2019-03-27T17:07:53.444Z,18.33
2019-03-27T17:10:25.506Z,19.20
2019-03-27T17:12:57.535Z,22.00
2019-03-27T17:15:33.969Z,16.03
2019-03-27T17:18:10.139Z,13.27
2019-03-27T17:20:42.590Z,13.43
2019-03-27T17:23:19.019Z,11.63
2019-03-27T17:25:52.704Z,11.40
2019-03-27T17:28:26.475Z,10.53
2019-03-27T17:31:00.530Z,11.13
2019-03-27T17:33:34.692Z,9.60
2019-03-27T17:36:07.696Z,11.40
2019-03-27T17:38:40.248Z,12.17
2019-03-27T17:41:13.672Z,11.63
2019-03-27T17:43:48.481Z,12.73
2019-03-27T17:46:20.674Z,13.20
2019-03-27T17:48:53.798Z,11.30
2019-03-27T17:51:25.592Z,13.80
2019-03-27T17:53:58.625Z,12.60
2019-03-27T17:56:31.714Z,13.60
2019-03-27T17:59:04.754Z,13.97
2019-03-27T18:01:38.733Z,13.73
2019-03-27T18:04:10.786Z,14.20
2019-03-27T18:06:43.580Z,12.23
2019-03-27T18:09:18.250Z,15.80
2019-03-27T18:11:52.740Z,15.47
2019-03-27T18:14:27.406Z,15.73
2019-03-27T18:17:02.222Z,15.60
2019-03-27T18:19:34.741Z,16.67
2019-03-27T18:22:08.274Z,14.83
2019-03-27T18:24:40.740Z,17.43
2019-03-27T18:27:12.934Z,17.57
2019-03-27T18:29:46.949Z,22.97
2019-03-27T18:32:20.713Z,15.37
2019-03-27T18:34:53.457Z,15.70
2019-03-27T18:37:28.595Z,18.20
2019-03-27T18:40:00.851Z,18.43
2019-03-27T18:42:35.231Z,16.37
2019-03-27T18:45:09.285Z,17.00
2019-03-27T18:47:46.134Z,18.17
2019-03-27T18:50:19.019Z,16.03
2019-03-27T18:52:54.195Z,17.87
2019-03-27T18:55:30.075Z,17.20
2019-03-27T18:58:04.103Z,16.77
2019-03-27T19:00:37.060Z,17.73
2019-03-27T19:03:14.788Z,16.17
2019-03-27T19:05:48.217Z,17.90
2019-03-27T19:08:21.066Z,18.33
2019-03-27T19:10:55.617Z,16.00
2019-03-27T19:13:29.009Z,16.30
2019-03-27T19:16:01.936Z,16.07
2019-03-27T19:18:36.165Z,15.67
2019-03-27T19:21:07.950Z,18.00
2019-03-27T19:23:42.760Z,16.77
2019-03-27T19:26:17.117Z,15.20
2019-03-27T19:28:50.241Z,18.13
2019-03-27T19:31:22.775Z,16.57
2019-03-27T19:33:56.047Z,17.83
2019-03-27T19:36:29.513Z,18.30
2019-03-27T19:39:11.459Z,16.97
2019-03-27T19:41:44.368Z,17.50
2019-03-27T19:44:17.217Z,17.33
2019-03-27T19:46:50.081Z,17.63
2019-03-27T19:49:22.658Z,16.20
2019-03-27T19:51:55.674Z,19.17
2019-03-27T19:54:29.331Z,18.23
2019-03-27T19:57:03.027Z,20.40
2019-03-27T19:59:35.656Z,18.33
2019-03-27T20:02:08.225Z,19.07
2019-03-27T20:04:40.125Z,19.23
2019-03-27T20:07:16.087Z,19.23
2019-03-27T20:09:50.477Z,19.40
2019-03-27T20:12:22.874Z,18.97
2019-03-27T20:14:56.310Z,19.40
2019-03-27T20:17:29.715Z,20.37
2019-03-27T20:20:07.162Z,21.03
2019-03-27T20:25:54.186Z,20.53
2019-03-27T20:28:26.682Z,20.37
2019-03-27T20:30:59.321Z,22.33
2019-03-27T20:33:33.380Z,21.53
2019-03-27T20:36:06.503Z,22.87
2019-03-27T20:38:41.346Z,20.50
2019-03-27T20:41:13.380Z,20.83
2019-03-27T20:43:47.617Z,19.97
2019-03-27T20:46:25.514Z,20.63
2019-03-27T20:48:56.391Z,20.80
2019-03-27T20:51:29.282Z,19.50
2019-03-27T20:54:02.453Z,21.47
2019-03-27T20:56:36.276Z,21.00
2019-03-27T20:59:10.271Z,20.97
2019-03-27T21:01:44.275Z,21.27
2019-03-27T21:04:20.686Z,20.70
2019-03-27T21:06:53.486Z,20.73
2019-03-27T21:09:26.559Z,20.53
2019-03-27T21:11:58.514Z,19.60
2019-03-27T21:14:34.131Z,19.33
2019-03-27T21:17:06.551Z,19.83
2019-03-27T21:19:38.525Z,21.20
2019-03-27T21:22:11.514Z,20.60
2019-03-27T21:24:44.746Z,19.43
2019-03-27T21:27:18.114Z,19.53
2019-03-27T21:29:52.016Z,20.77
2019-03-27T21:32:25.704Z,20.47
2019-03-27T21:34:58.932Z,21.10
2019-03-27T21:37:33.258Z,22.13
2019-03-27T21:40:09.134Z,19.00
2019-03-27T21:42:46.283Z,20.30
2019-03-27T21:45:21.346Z,20.10
2019-03-27T21:47:56.357Z,21.80
2019-03-27T21:50:29.698Z,19.77
2019-03-27T21:53:01.752Z,20.83
2019-03-27T21:55:42.758Z,20.20
2019-03-27T21:58:11.804Z,20.10
2019-03-27T22:00:45.671Z,20.83
2019-03-27T22:03:19.637Z,21.97
2019-03-27T22:05:52.685Z,21.90
2019-03-27T22:08:24.906Z,21.03
2019-03-27T22:10:58.711Z,19.50
2019-03-27T22:13:32.047Z,20.80
2019-03-27T22:16:04.969Z,20.30
2019-03-27T22:18:36.832Z,19.53
2019-03-27T22:21:11.091Z,18.27
2019-03-27T22:23:45.895Z,20.17
2019-03-27T22:26:17.874Z,22.03
2019-03-27T22:28:50.047Z,19.50
2019-03-27T22:31:23.053Z,19.20
2019-03-27T22:33:57.769Z,20.40
2019-03-27T22:36:32.516Z,19.27
2019-03-27T22:39:09.588Z,19.83
2019-03-27T22:41:44.007Z,16.60
2019-03-27T22:44:17.806Z,16.93
2019-03-27T22:46:49.789Z,22.10
2019-03-27T22:49:23.006Z,21.30
2019-03-27T22:51:56.047Z,19.80
2019-03-27T22:54:29.043Z,21.33
2019-03-27T22:57:02.986Z,20.37
2019-03-27T22:59:34.852Z,20.37
2019-03-27T23:02:10.564Z,18.87
2019-03-27T23:04:45.841Z,20.70
2019-03-27T23:07:20.356Z,19.30
2019-03-27T23:09:53.205Z,19.67
2019-03-27T23:12:26.333Z,19.77
2019-03-27T23:15:00.726Z,20.37
2019-03-27T23:17:35.392Z,20.20
2019-03-27T23:20:10.603Z,21.10
2019-03-27T23:22:44.557Z,20.93
2019-03-27T23:25:19.046Z,19.83
2019-03-27T23:27:53.984Z,20.70
2019-03-27T23:30:26.761Z,20.33
2019-03-27T23:32:59.948Z,19.77
2019-03-27T23:35:32.257Z,16.30
2019-03-27T23:38:05.846Z,18.67
2019-03-27T23:40:38.158Z,17.90
2019-03-27T23:43:13.354Z,19.40
2019-03-27T23:45:47.196Z,20.27
2019-03-27T23:48:24.197Z,17.90
2019-03-27T23:50:57.353Z,15.87
2019-03-27T23:53:32.416Z,15.20
2019-03-27T23:56:16.058Z,14.80
2019-03-27T23:58:41.158Z,13.50
